Las Vegas/Nellis AFB, Nevada
Current Conditions -  °F | °C
As of 12:58 PM on Sunday 23 Nov 2014 (Local Time) from KLSV Reporting Station
Clear Clear  
Wind Chill: 62°   Ceiling: Unl
Heat Index: 62°   Visibility: 10mi
Dew Point: 10°   Wind: 15mph
Humidity: 13%   Direction: 20°NNE
Pressure: 30.23"   Gusts: 20mph
Location:  36.25°N, 115.03°W
Report Text: KLSV 232058Z AUTO 02013G17KT 10SM CLR 16/M12 A3023 RMK AO2 SLP228 T01641120 57019
Loading
Personal Weather Stations






























Interactive Weather Map New forecast layout! Learn more

10-Day Weather Forecast

Advertisements
Track Severe Weather on mobile